Time;durP1;ratioP1;P1;durP2;ratioP2;P2;SDS_P1;SDS_P2;PMS_P1;PMS_P2;Temp;Humidity;BMP_temperature;BMP_pressure;BME280_temperature;BME280_humidity;BME280_pressure;Samples;Min_cycle;Max_cycle;Signal;HPM_P1;HPM_P2
2023/03/08 00:00:16;;;;;;;18.23;11.13;;;1.30;99.90;2.50;95300.00;;;;5068808;28;20864;-69
2023/03/08 00:03:04;;;;;;;14.80;9.23;;;1.30;99.90;2.40;95303.00;;;;5064845;28;20509;-70
2023/03/08 00:05:53;;;;;;;18.30;10.67;;;1.30;99.90;2.30;95302.00;;;;5062318;28;20426;-69
2023/03/08 00:08:42;;;;;;;18.77;12.23;;;1.40;99.90;2.30;95303.00;;;;5059854;28;20427;-69
2023/03/08 00:11:31;;;;;;;15.50;11.17;;;1.30;99.90;2.20;95308.00;;;;5066717;28;20447;-70
2023/03/08 00:14:21;;;;;;;17.27;9.53;;;1.30;99.90;2.30;95311.00;;;;5067645;28;20786;-70
2023/03/08 00:17:11;;;;;;;13.10;9.57;;;1.30;99.90;2.00;95318.00;;;;5057236;28;20419;-69
2023/03/08 00:20:00;;;;;;;16.60;11.00;;;1.20;99.90;1.90;95309.00;;;;5053966;28;20525;-70
2023/03/08 00:22:49;;;;;;;15.00;9.80;;;1.10;99.90;2.00;95314.00;;;;5062000;28;20494;-69
2023/03/08 00:25:37;;;;;;;18.27;11.47;;;1.10;99.90;2.10;95321.00;;;;5071822;28;20414;-69
2023/03/08 00:28:26;;;;;;;14.83;9.87;;;1.10;99.90;2.20;95311.00;;;;5070970;28;20434;-70
2023/03/08 00:31:15;;;;;;;18.53;11.03;;;1.10;99.90;2.10;95315.00;;;;5062334;28;20977;-70
2023/03/08 00:34:05;;;;;;;21.50;12.40;;;1.10;99.90;1.70;95297.00;;;;5072177;28;20429;-70
2023/03/08 00:36:53;;;;;;;10.70;8.53;;;1.00;99.90;1.70;95299.00;;;;5072064;28;20431;-69
2023/03/08 00:39:42;;;;;;;17.23;10.20;;;1.00;99.90;1.60;95309.00;;;;5060127;28;20522;-70
2023/03/08 00:42:31;;;;;;;12.57;8.90;;;0.90;99.90;1.40;95305.00;;;;5060856;28;20497;-68
2023/03/08 00:45:20;;;;;;;17.83;9.63;;;0.90;99.90;1.80;95310.00;;;;5066525;28;20880;-70
2023/03/08 00:48:08;;;;;;;17.03;10.97;;;0.90;99.90;2.10;95309.00;;;;5070119;28;20430;-70
2023/03/08 00:50:58;;;;;;;20.60;11.47;;;0.90;99.90;2.10;95308.00;;;;5056020;28;20824;-70
2023/03/08 00:53:48;;;;;;;14.10;9.90;;;1.00;99.90;1.90;95301.00;;;;5059050;28;20434;-70
2023/03/08 00:56:37;;;;;;;14.97;10.40;;;1.00;99.90;2.00;95302.00;;;;5060462;28;20942;-70
2023/03/08 00:59:25;;;;;;;13.53;9.33;;;1.00;99.90;2.00;95310.00;;;;5069509;28;20519;-70
2023/03/08 01:02:14;;;;;;;16.73;10.73;;;1.00;99.90;1.80;95311.00;;;;5071077;28;20457;-70
2023/03/08 01:05:03;;;;;;;14.77;10.17;;;0.90;99.90;1.70;95320.00;;;;5071250;28;20427;-70
2023/03/08 01:07:53;;;;;;;21.27;11.63;;;0.90;99.90;1.60;95314.00;;;;5070216;28;20433;-69
2023/03/08 01:10:48;;;;;;;18.00;11.90;;;0.90;99.90;1.90;95322.00;;;;5063269;28;20950;-69
2023/03/08 01:13:36;;;;;;;15.57;10.33;;;0.90;99.90;2.00;95308.00;;;;5070421;28;20438;-69
2023/03/08 01:16:28;;;;;;;16.13;11.70;;;0.90;99.90;2.10;95315.00;;;;5070590;28;20830;-69
2023/03/08 01:19:16;;;;;;;19.87;12.20;;;1.00;99.90;2.10;95328.00;;;;5071280;28;20426;-70
2023/03/08 01:22:05;;;;;;;15.77;11.20;;;1.00;99.90;2.00;95319.00;;;;5071620;28;20827;-69
2023/03/08 01:24:55;;;;;;;12.67;9.20;;;1.00;99.90;1.80;95335.00;;;;5071186;28;20930;-69
2023/03/08 01:27:44;;;;;;;13.43;10.50;;;1.00;99.90;1.80;95331.00;;;;5070463;28;20423;-69
2023/03/08 01:30:33;;;;;;;18.63;10.27;;;1.00;99.90;1.80;95337.00;;;;5070918;28;20525;-69
2023/03/08 01:33:23;;;;;;;20.20;12.20;;;1.00;99.90;2.10;95334.00;;;;5070508;28;20438;-69
2023/03/08 01:36:15;;;;;;;19.00;10.77;;;1.00;99.90;2.00;95340.00;;;;5057365;28;20431;-69
2023/03/08 01:39:04;;;;;;;17.47;10.50;;;1.10;99.90;2.10;95342.00;;;;5069604;28;20500;-70
2023/03/08 01:41:54;;;;;;;16.90;10.23;;;1.10;99.90;2.30;95350.00;;;;5051890;28;20512;-69
2023/03/08 01:44:51;;;;;;;22.47;12.10;;;1.10;99.90;2.30;95353.00;;;;5058349;28;20415;-70
2023/03/08 01:47:40;;;;;;;16.33;10.90;;;1.20;99.90;2.20;95339.00;;;;5062987;28;20795;-69
2023/03/08 01:50:29;;;;;;;15.90;11.30;;;1.20;99.90;2.30;95342.00;;;;5054823;28;20843;-69
2023/03/08 01:53:18;;;;;;;13.77;10.43;;;1.20;99.90;2.50;95355.00;;;;5059215;28;20470;-69
2023/03/08 01:56:11;;;;;;;20.33;11.80;;;1.20;99.90;2.30;95357.00;;;;5070412;28;20491;-69
2023/03/08 01:59:02;;;;;;;15.87;9.63;;;1.30;99.90;2.40;95355.00;;;;5058232;28;20443;-69
2023/03/08 02:01:51;;;;;;;18.37;12.13;;;1.30;99.90;2.40;95357.00;;;;5063235;28;20467;-69
2023/03/08 02:04:40;;;;;;;18.30;10.37;;;1.30;99.90;2.30;95359.00;;;;5065626;28;20524;-69
2023/03/08 02:07:29;;;;;;;15.63;10.27;;;1.30;99.90;2.00;95345.00;;;;5070674;28;20512;-68
2023/03/08 02:10:19;;;;;;;17.90;9.90;;;1.30;99.90;2.20;95350.00;;;;5060059;28;20472;-69
2023/03/08 02:13:10;;;;;;;15.13;10.17;;;1.20;99.90;2.20;95357.00;;;;5069185;28;20453;-69
2023/03/08 02:16:03;;;;;;;19.77;11.27;;;1.30;99.90;2.00;95364.00;;;;5051942;28;20458;-69
2023/03/08 02:18:58;;;;;;;15.17;9.43;;;1.20;99.90;1.60;95365.00;;;;5057286;28;20456;-69
2023/03/08 02:21:47;;;;;;;13.37;9.30;;;1.20;99.90;2.20;95362.00;;;;5069833;28;20555;-69
2023/03/08 02:24:37;;;;;;;16.70;10.67;;;1.10;99.90;2.20;95370.00;;;;5053578;28;20848;-69
2023/03/08 02:27:27;;;;;;;15.17;9.70;;;1.20;99.90;2.20;95367.00;;;;5056207;28;20432;-69
2023/03/08 02:30:22;;;;;;;12.50;9.37;;;1.20;99.90;2.30;95372.00;;;;5067191;28;20422;-69
2023/03/08 02:33:11;;;;;;;19.67;9.37;;;1.30;99.90;2.50;95367.00;;;;5066005;28;20519;-69
2023/03/08 02:36:02;;;;;;;15.00;9.97;;;1.30;99.90;2.60;95383.00;;;;5066788;28;20430;-68
2023/03/08 02:38:51;;;;;;;15.53;9.87;;;1.40;99.90;2.70;95384.00;;;;5065209;28;20941;-69
2023/03/08 02:41:41;;;;;;;15.80;10.57;;;1.50;99.90;2.70;95386.00;;;;5054145;28;20461;-69
2023/03/08 02:44:29;;;;;;;14.13;10.10;;;1.50;99.90;2.70;95380.00;;;;5069476;28;20438;-69
2023/03/08 02:47:18;;;;;;;14.27;10.67;;;1.50;99.90;2.70;95383.00;;;;5059265;28;20505;-69
2023/03/08 02:50:09;;;;;;;14.83;9.43;;;1.60;99.90;2.60;95378.00;;;;5057801;28;20434;-69
2023/03/08 02:52:58;;;;;;;17.00;9.77;;;1.50;99.90;2.80;95382.00;;;;5055757;28;20494;-68
2023/03/08 02:55:46;;;;;;;15.77;10.00;;;1.60;99.90;2.70;95389.00;;;;5058127;28;20964;-69
2023/03/08 02:58:36;;;;;;;16.33;11.00;;;1.60;99.90;2.80;95393.00;;;;5057619;28;20408;-69
2023/03/08 03:01:25;;;;;;;16.70;10.10;;;1.60;99.90;2.70;95375.00;;;;5067996;28;21013;-69
2023/03/08 03:04:14;;;;;;;16.97;11.03;;;1.60;99.90;2.60;95383.00;;;;5068744;28;20431;-69
2023/03/08 03:07:04;;;;;;;14.00;10.63;;;1.60;99.90;2.80;95384.00;;;;5065548;28;20434;-69
2023/03/08 03:09:53;;;;;;;12.90;10.03;;;1.70;99.90;3.00;95390.00;;;;5059012;28;20430;-69
2023/03/08 03:12:42;;;;;;;17.80;9.80;;;1.70;99.90;3.00;95386.00;;;;5055485;28;20450;-69
2023/03/08 03:15:33;;;;;;;12.60;9.03;;;1.70;99.90;3.10;95404.00;;;;5068669;28;20430;-69
2023/03/08 03:18:22;;;;;;;12.73;9.80;;;1.80;99.90;2.50;95398.00;;;;5057619;28;20442;-69
2023/03/08 03:21:13;;;;;;;17.93;9.90;;;1.70;99.90;2.30;95413.00;;;;5053713;28;20993;-70
2023/03/08 03:24:01;;;;;;;12.00;8.93;;;1.70;99.90;2.30;95397.00;;;;5065150;28;20499;-70
2023/03/08 03:26:51;;;;;;;19.17;9.83;;;1.60;99.90;2.40;95420.00;;;;5053361;28;20907;-70
2023/03/08 03:29:40;;;;;;;13.97;10.33;;;1.60;99.90;2.60;95412.00;;;;5060660;28;20427;-70
2023/03/08 03:32:30;;;;;;;18.40;11.03;;;1.60;99.90;2.90;95420.00;;;;5068632;28;20457;-70
2023/03/08 03:35:19;;;;;;;20.73;11.60;;;1.70;99.90;3.00;95407.00;;;;5065130;28;20441;-70
2023/03/08 03:38:07;;;;;;;15.17;9.70;;;1.70;99.90;3.00;95405.00;;;;5068106;28;20441;-70
2023/03/08 03:41:02;;;;;;;16.07;9.93;;;1.70;99.90;3.00;95398.00;;;;5068569;28;20423;-70
2023/03/08 03:43:51;;;;;;;14.00;9.97;;;1.80;99.90;3.00;95405.00;;;;5054002;28;20468;-71
2023/03/08 03:46:40;;;;;;;17.27;11.20;;;1.90;99.90;2.90;95402.00;;;;5054682;28;20426;-70
2023/03/08 03:49:30;;;;;;;15.40;11.23;;;1.90;99.90;3.00;95416.00;;;;5067708;28;20430;-70
2023/03/08 03:52:19;;;;;;;26.23;12.80;;;1.90;99.90;3.00;95428.00;;;;5059379;28;20462;-70
2023/03/08 03:55:09;;;;;;;15.87;11.83;;;1.90;99.90;3.00;95436.00;;;;5056541;28;21144;-70
2023/03/08 03:57:58;;;;;;;15.83;11.50;;;1.90;99.90;2.80;95433.00;;;;5057134;28;20942;-70
2023/03/08 04:00:47;;;;;;;15.27;9.90;;;1.80;99.90;2.50;95437.00;;;;5061871;28;20430;-70
2023/03/08 04:03:36;;;;;;;15.87;9.90;;;1.80;99.90;2.50;95446.00;;;;5060081;28;20977;-70
2023/03/08 04:06:29;;;;;;;20.30;11.03;;;1.90;99.90;3.00;95442.00;;;;5067690;28;20423;-70
2023/03/08 04:09:19;;;;;;;22.20;12.53;;;1.90;99.90;3.00;95439.00;;;;5068277;28;20555;-70
2023/03/08 04:12:08;;;;;;;19.50;12.23;;;1.80;99.90;3.20;95431.00;;;;5068051;28;20813;-69
2023/03/08 04:14:57;;;;;;;19.67;12.40;;;1.90;99.90;3.20;95427.00;;;;5049459;28;20451;-70
2023/03/08 04:17:46;;;;;;;17.63;11.73;;;2.00;99.90;3.20;95427.00;;;;5057153;28;20553;-70
2023/03/08 04:20:34;;;;;;;23.03;12.67;;;2.00;99.90;3.30;95436.00;;;;5067814;28;20422;-69
2023/03/08 04:23:24;;;;;;;20.30;12.07;;;1.90;99.90;3.30;95427.00;;;;5058343;28;20906;-69
2023/03/08 04:26:13;;;;;;;20.03;12.47;;;2.10;99.90;3.30;95435.00;;;;5057062;28;20430;-69
2023/03/08 04:29:04;;;;;;;16.53;12.13;;;2.10;99.90;3.30;95438.00;;;;5059378;28;20496;-69
2023/03/08 04:31:57;;;;;;;18.57;12.83;;;2.10;99.90;3.20;95448.00;;;;5061275;28;20443;-69
2023/03/08 04:34:45;;;;;;;16.47;11.87;;;2.10;99.90;2.40;95451.00;;;;5057553;28;20422;-68
2023/03/08 04:37:35;;;;;;;22.37;13.07;;;2.00;99.90;2.60;95470.00;;;;5067408;28;20438;-68
2023/03/08 04:40:25;;;;;;;16.70;11.63;;;1.80;99.90;2.60;95471.00;;;;5067913;28;20422;-68
2023/03/08 04:43:14;;;;;;;21.10;10.97;;;1.80;99.90;2.40;95463.00;;;;5067049;28;21101;-68
2023/03/08 04:46:03;;;;;;;16.70;11.83;;;1.70;99.90;2.50;95471.00;;;;5057603;28;20455;-68
2023/03/08 04:48:54;;;;;;;18.97;10.80;;;1.70;99.90;2.70;95458.00;;;;5053879;28;20431;-68
2023/03/08 04:51:43;;;;;;;15.07;10.07;;;1.70;99.90;2.60;95463.00;;;;5064300;28;20448;-68
2023/03/08 04:54:31;;;;;;;17.60;10.30;;;1.60;99.90;2.50;95469.00;;;;5067505;28;20422;-69
2023/03/08 04:57:22;;;;;;;21.13;12.33;;;1.80;99.90;2.50;95470.00;;;;5067307;28;20411;-69
2023/03/08 05:00:12;;;;;;;18.93;12.03;;;1.60;99.90;2.60;95466.00;;;;5067366;28;20454;-68
2023/03/08 05:03:01;;;;;;;18.23;10.60;;;1.60;99.90;2.50;95450.00;;;;5065529;28;20524;-68
2023/03/08 05:05:53;;;;;;;15.63;10.47;;;1.60;99.90;2.30;95458.00;;;;5071141;28;20484;-70
2023/03/08 05:08:42;;;;;;;18.60;11.83;;;1.50;99.90;2.40;95454.00;;;;5065939;28;20435;-69
2023/03/08 05:11:30;;;;;;;14.70;9.93;;;1.50;99.90;2.50;95460.00;;;;5054833;28;20475;-69
2023/03/08 05:14:21;;;;;;;16.50;11.83;;;1.40;99.90;2.30;95464.00;;;;5066257;28;20449;-69
2023/03/08 05:17:09;;;;;;;17.90;11.27;;;1.50;99.90;2.20;95452.00;;;;5054204;28;20432;-69
2023/03/08 05:19:58;;;;;;;20.37;12.13;;;1.40;99.90;2.30;95451.00;;;;5057068;28;20416;-69
2023/03/08 05:22:47;;;;;;;20.93;12.03;;;1.40;99.90;2.30;95459.00;;;;5064410;28;20473;-69
2023/03/08 05:25:46;;;;;;;17.90;11.20;;;1.40;99.90;2.20;95444.00;;;;5058839;28;20938;-69
2023/03/08 05:28:36;;;;;;;16.80;10.57;;;1.30;99.90;2.10;95463.00;;;;5065963;28;20482;-69
2023/03/08 05:31:27;;;;;;;16.17;10.43;;;1.30;99.90;1.90;95471.00;;;;5053408;28;20817;-68
2023/03/08 05:34:16;;;;;;;20.70;12.60;;;1.30;99.90;1.80;95471.00;;;;5055042;28;20434;-68
2023/03/08 05:37:05;;;;;;;18.67;11.43;;;1.20;99.90;1.80;95490.00;;;;5056054;28;20419;-68
2023/03/08 05:39:54;;;;;;;15.90;11.70;;;1.20;99.90;2.00;95493.00;;;;5055324;28;20524;-69
2023/03/08 05:42:42;;;;;;;17.53;11.30;;;1.20;99.90;2.40;95490.00;;;;5066246;28;20477;-68
2023/03/08 05:45:31;;;;;;;23.70;11.23;;;1.20;99.90;2.30;95492.00;;;;5063339;28;20850;-69
2023/03/08 05:48:21;;;;;;;22.00;11.67;;;1.30;99.90;2.30;95504.00;;;;5064048;28;21908;-69
2023/03/08 05:51:12;;;;;;;20.70;13.03;;;1.40;99.90;2.40;95497.00;;;;5060005;28;20947;-68
2023/03/08 05:54:00;;;;;;;16.90;10.77;;;1.40;99.90;2.50;95502.00;;;;5065976;28;20635;-69
2023/03/08 05:56:49;;;;;;;17.27;12.40;;;1.50;99.90;2.50;95500.00;;;;5065811;28;20425;-69
2023/03/08 05:59:38;;;;;;;26.63;15.50;;;1.50;99.90;2.40;95517.00;;;;5054194;28;20426;-68
2023/03/08 06:02:29;;;;;;;16.70;11.40;;;1.50;99.90;2.40;95507.00;;;;5070288;28;20530;-69
2023/03/08 06:05:19;;;;;;;18.30;10.27;;;1.50;99.90;2.00;95513.00;;;;5059347;28;20423;-68
2023/03/08 06:08:08;;;;;;;22.27;11.87;;;1.40;99.90;2.40;95513.00;;;;5059044;28;20419;-69
2023/03/08 06:10:56;;;;;;;17.53;10.43;;;1.40;99.90;2.80;95514.00;;;;5063747;28;20480;-68
2023/03/08 06:13:45;;;;;;;18.77;11.77;;;1.50;99.90;2.90;95512.00;;;;5061511;28;20942;-69
2023/03/08 06:16:34;;;;;;;17.00;10.83;;;1.60;99.90;2.50;95519.00;;;;5059095;28;20427;-68
2023/03/08 06:19:23;;;;;;;18.57;11.83;;;1.60;99.90;2.80;95520.00;;;;5068260;28;20453;-69
2023/03/08 06:22:15;;;;;;;14.77;10.67;;;1.70;99.90;2.80;95526.00;;;;5069440;28;20968;-68
2023/03/08 06:25:05;;;;;;;20.00;12.77;;;1.70;99.90;2.80;95530.00;;;;5055935;28;20423;-69
2023/03/08 06:27:54;;;;;;;20.63;9.80;;;1.80;99.90;2.60;95529.00;;;;5060072;28;20439;-68
2023/03/08 06:30:42;;;;;;;19.67;11.33;;;1.80;99.90;2.80;95531.00;;;;5064534;28;20488;-68
2023/03/08 06:33:34;;;;;;;18.97;10.57;;;1.80;99.90;3.00;95530.00;;;;5060121;28;20474;-68
2023/03/08 06:36:22;;;;;;;20.93;12.20;;;1.90;99.90;2.90;95532.00;;;;5057780;28;20436;-68
2023/03/08 06:39:12;;;;;;;16.77;10.03;;;1.90;99.90;3.00;95534.00;;;;5062592;28;20446;-68
2023/03/08 06:42:02;;;;;;;23.00;14.43;;;1.90;99.90;2.90;95540.00;;;;5061202;28;20481;-68
2023/03/08 06:44:51;;;;;;;26.37;15.43;;;2.00;99.90;3.10;95543.00;;;;5062918;28;21054;-68
2023/03/08 06:47:39;;;;;;;27.30;16.17;;;2.10;99.90;3.10;95545.00;;;;5060095;28;20431;-68
2023/03/08 06:50:28;;;;;;;27.63;17.17;;;2.10;99.90;3.30;95548.00;;;;5063904;28;20426;-68
2023/03/08 06:53:17;;;;;;;27.27;14.90;;;2.20;99.90;3.90;95555.00;;;;5061472;28;20450;-68
2023/03/08 06:56:08;;;;;;;23.47;15.17;;;2.40;99.90;3.90;95556.00;;;;5064793;28;20412;-68
2023/03/08 06:58:57;;;;;;;24.37;15.60;;;2.50;99.90;3.60;95558.00;;;;5058436;28;20440;-67
2023/03/08 07:01:46;;;;;;;24.20;15.60;;;2.60;99.90;3.70;95555.00;;;;5060197;28;20504;-68
2023/03/08 07:04:34;;;;;;;25.37;15.77;;;2.60;99.90;3.90;95567.00;;;;5062439;28;20515;-68
2023/03/08 07:07:23;;;;;;;26.20;15.83;;;2.70;99.90;4.10;95556.00;;;;5059671;28;20785;-67
2023/03/08 07:10:14;;;;;;;19.73;14.60;;;2.80;99.90;4.50;95559.00;;;;5061829;28;20430;-67
2023/03/08 07:13:04;;;;;;;22.17;16.17;;;2.90;99.90;4.30;95558.00;;;;5061175;28;20983;-68
2023/03/08 07:15:53;;;;;;;22.50;14.97;;;3.00;99.90;4.30;95551.00;;;;5062184;28;20418;-68
2023/03/08 07:18:42;;;;;;;34.47;16.37;;;3.10;99.90;4.30;95565.00;;;;5061175;28;20422;-68
2023/03/08 07:21:31;;;;;;;25.60;13.50;;;3.10;99.90;4.30;95571.00;;;;5060992;28;20601;-68
2023/03/08 07:24:19;;;;;;;22.27;13.10;;;3.10;99.90;4.40;95571.00;;;;5059762;28;20524;-68
2023/03/08 07:27:08;;;;;;;24.47;14.53;;;3.20;99.90;4.60;95576.00;;;;5066612;28;20495;-68
2023/03/08 07:29:58;;;;;;;23.23;13.17;;;3.30;99.90;4.40;95568.00;;;;5062446;28;20418;-67
2023/03/08 07:32:47;;;;;;;21.50;13.60;;;3.40;99.90;4.50;95576.00;;;;5059320;28;20976;-68
2023/03/08 07:35:37;;;;;;;20.97;13.07;;;3.40;99.90;4.70;95581.00;;;;5059837;28;20851;-68
2023/03/08 07:38:27;;;;;;;21.87;12.63;;;3.50;99.90;5.10;95579.00;;;;5068483;28;20426;-67
2023/03/08 07:41:16;;;;;;;18.53;12.57;;;3.60;99.90;5.30;95575.00;;;;5066327;28;20426;-68
2023/03/08 07:44:05;;;;;;;27.57;13.23;;;3.80;99.90;5.40;95564.00;;;;5058110;28;20662;-68
2023/03/08 07:46:55;;;;;;;19.87;12.67;;;3.90;99.90;5.70;95589.00;;;;5060121;28;20209;-68
2023/03/08 07:49:44;;;;;;;20.23;13.77;;;4.10;99.90;6.10;95585.00;;;;5068098;28;20277;-68
2023/03/08 07:52:33;;;;;;;25.50;15.83;;;4.30;99.90;6.30;95585.00;;;;5068029;28;20234;-68
2023/03/08 07:55:22;;;;;;;24.63;14.10;;;4.50;99.90;6.60;95596.00;;;;5065013;28;20204;-68
2023/03/08 07:58:10;;;;;;;27.00;17.60;;;4.70;99.90;6.80;95572.00;;;;5051714;28;20224;-67
2023/03/08 08:00:59;;;;;;;29.17;18.00;;;4.90;99.90;7.00;95573.00;;;;5063529;28;20204;-68
2023/03/08 08:03:49;;;;;;;29.70;15.03;;;5.20;99.90;7.20;95574.00;;;;5055221;28;20217;-67
2023/03/08 08:06:39;;;;;;;27.27;14.67;;;5.30;99.90;7.30;95568.00;;;;5064048;28;20196;-66
2023/03/08 08:09:28;;;;;;;24.13;14.67;;;5.50;99.90;7.50;95563.00;;;;5063456;28;20612;-66
2023/03/08 08:12:16;;;;;;;25.97;13.67;;;5.70;99.90;7.60;95568.00;;;;5052530;28;20298;-67
2023/03/08 08:15:06;;;;;;;28.87;15.87;;;5.80;99.90;7.70;95569.00;;;;5068033;28;20277;-67
2023/03/08 08:17:55;;;;;;;26.90;14.70;;;5.90;99.90;8.00;95565.00;;;;5067402;28;20212;-66
2023/03/08 08:20:45;;;;;;;19.87;12.30;;;6.10;99.90;8.00;95556.00;;;;5069062;28;20192;-66
2023/03/08 08:23:34;;;;;;;20.83;14.80;;;6.20;99.90;8.10;95550.00;;;;5067814;28;20258;-67
2023/03/08 08:26:23;;;;;;;23.47;14.67;;;6.30;99.90;7.90;95541.00;;;;5068337;28;20200;-66
2023/03/08 08:29:12;;;;;;;21.50;12.70;;;6.40;99.90;8.20;95553.00;;;;5062510;28;20213;-66
2023/03/08 08:32:03;;;;;;;27.23;14.20;;;6.40;99.90;8.20;95547.00;;;;5061986;28;20220;-68
2023/03/08 08:34:51;;;;;;;19.03;14.10;;;6.50;99.90;8.10;95544.00;;;;5061846;28;20200;-66
2023/03/08 08:37:42;;;;;;;22.60;13.70;;;6.50;99.90;8.00;95535.00;;;;5061968;28;20196;-66
2023/03/08 08:40:30;;;;;;;20.30;13.90;;;6.50;99.90;7.80;95534.00;;;;5065925;28;20204;-66
2023/03/08 08:43:19;;;;;;;22.97;14.77;;;6.50;99.90;8.10;95545.00;;;;5064334;28;20620;-66
2023/03/08 08:46:08;;;;;;;20.83;13.47;;;6.50;99.90;8.30;95550.00;;;;5065640;28;20197;-68
2023/03/08 08:48:58;;;;;;;16.27;12.27;;;6.60;99.90;8.70;95544.00;;;;5064675;28;20205;-68
2023/03/08 08:51:47;;;;;;;23.07;13.90;;;6.70;99.90;8.90;95557.00;;;;5063345;28;20354;-66
2023/03/08 08:54:39;;;;;;;23.67;13.03;;;6.90;99.90;8.90;95553.00;;;;5065797;28;20273;-66
2023/03/08 08:57:28;;;;;;;19.63;12.47;;;7.00;99.90;8.60;95554.00;;;;5065975;28;20603;-66
2023/03/08 09:00:18;;;;;;;23.60;13.27;;;7.10;99.90;8.30;95554.00;;;;5062903;28;20580;-66
2023/03/08 09:03:07;;;;;;;17.50;12.17;;;7.20;99.90;8.70;95559.00;;;;5065305;28;20239;-66
2023/03/08 09:05:58;;;;;;;18.97;12.27;;;7.20;99.90;8.50;95563.00;;;;5066345;28;20296;-66
2023/03/08 09:08:50;;;;;;;19.57;12.53;;;7.20;99.90;8.80;95565.00;;;;5062066;28;20203;-66
2023/03/08 09:11:40;;;;;;;24.10;14.20;;;7.30;99.90;9.30;95558.00;;;;5063117;28;20239;-67
2023/03/08 09:14:41;;;;;;;17.60;13.13;;;7.40;99.90;9.30;95558.00;;;;5067396;28;20199;-67
2023/03/08 09:17:32;;;;;;;20.50;12.20;;;7.50;99.90;9.90;95567.00;;;;5064356;28;20207;-66
2023/03/08 09:20:21;;;;;;;25.73;14.37;;;7.70;99.90;9.90;95575.00;;;;5066059;28;20203;-67
2023/03/08 09:23:11;;;;;;;24.17;13.07;;;7.90;99.90;9.80;95566.00;;;;5065145;28;20229;-67
2023/03/08 09:25:59;;;;;;;23.43;13.07;;;8.00;99.90;9.50;95567.00;;;;5061855;28;20221;-66
2023/03/08 09:28:51;;;;;;;21.87;14.90;;;8.00;99.90;9.50;95571.00;;;;5064705;28;20196;-66
2023/03/08 09:31:41;;;;;;;17.73;12.87;;;8.00;99.90;9.80;95557.00;;;;5064167;28;20219;-66
2023/03/08 09:34:29;;;;;;;19.90;12.77;;;8.00;99.90;9.40;95545.00;;;;5061041;28;20248;-66
2023/03/08 09:37:18;;;;;;;22.37;13.07;;;8.00;99.90;9.80;95553.00;;;;5063467;28;20200;-66
2023/03/08 09:40:17;;;;;;;18.47;10.93;;;8.00;99.90;9.60;95555.00;;;;5064541;28;20201;-66
2023/03/08 09:43:07;;;;;;;21.97;13.87;;;8.10;99.90;9.90;95553.00;;;;5065926;28;20227;-66
2023/03/08 09:45:58;;;;;;;21.73;14.03;;;8.10;99.90;10.10;95559.00;;;;5065649;28;20231;-66
2023/03/08 09:48:50;;;;;;;14.93;11.37;;;8.20;99.90;10.10;95550.00;;;;5063288;28;20224;-66
2023/03/08 09:51:44;;;;;;;16.47;10.80;;;8.30;99.90;10.10;95554.00;;;;5070761;28;20241;-66
2023/03/08 09:54:37;;;;;;;18.93;11.20;;;8.30;99.90;10.20;95556.00;;;;5059039;28;20216;-66
2023/03/08 09:57:31;;;;;;;17.53;11.13;;;8.40;99.90;10.40;95547.00;;;;5064622;28;20206;-66
2023/03/08 10:00:22;;;;;;;16.83;11.83;;;8.50;99.90;10.60;95548.00;;;;5053184;28;20207;-66
2023/03/08 10:04:05;;;;;;;18.53;10.63;;;8.60;99.90;10.50;95550.00;;;;5070531;28;20224;-66
2023/03/08 10:07:15;;;;;;;15.83;11.60;;;8.70;99.90;10.40;95551.00;;;;5026994;28;20230;-66
2023/03/08 10:10:19;;;;;;;19.73;10.93;;;8.70;99.90;10.60;95544.00;;;;5065361;28;20253;-66
2023/03/08 10:13:35;;;;;;;20.20;11.73;;;8.80;99.90;10.70;95545.00;;;;5056171;28;20216;-66
2023/03/08 10:16:27;;;;;;;29.60;16.90;;;8.90;99.90;10.90;95533.00;;;;5059698;28;20208;-66
2023/03/08 10:19:22;;;;;;;28.77;14.23;;;8.90;99.90;11.20;95530.00;;;;5069721;28;20559;-66
2023/03/08 10:22:26;;;;;;;20.83;12.20;;;9.10;99.90;11.40;95523.00;;;;5061762;28;20281;-66
2023/03/08 10:25:23;;;;;;;15.20;10.07;;;9.20;99.90;11.20;95520.00;;;;5067212;28;20348;-65
2023/03/08 10:28:16;;;;;;;18.83;10.07;;;9.30;99.90;11.30;95508.00;;;;5067032;28;20668;-66
2023/03/08 10:31:23;;;;;;;17.20;11.13;;;9.40;99.90;11.80;95498.00;;;;5050677;28;20204;-66
2023/03/08 10:34:15;;;;;;;15.47;10.50;;;9.60;99.90;11.70;95487.00;;;;5051901;28;20201;-66
2023/03/08 10:37:07;;;;;;;15.57;9.93;;;9.70;99.90;11.50;95490.00;;;;5061324;28;20286;-66
2023/03/08 10:39:58;;;;;;;14.50;9.53;;;9.70;99.90;11.40;95472.00;;;;5064990;28;20711;-66
2023/03/08 10:42:56;;;;;;;11.63;8.97;;;9.80;99.90;10.60;95471.00;;;;5064035;28;20223;-69
2023/03/08 10:45:45;;;;;;;13.13;8.77;;;9.70;99.90;9.70;95460.00;;;;5069986;28;20583;-65
2023/03/08 10:48:34;;;;;;;19.27;9.70;;;9.20;99.90;10.30;95458.00;;;;5059670;28;20234;-65
2023/03/08 10:51:26;;;;;;;14.33;9.40;;;9.10;99.90;10.80;95450.00;;;;5067754;28;20235;-65
2023/03/08 10:54:16;;;;;;;12.50;9.00;;;7.70;99.90;11.30;95450.00;;;;5068890;28;20246;-65
2023/03/08 10:57:05;;;;;;;14.13;9.00;;;9.30;99.90;12.00;95436.00;;;;5065120;28;20203;-68
2023/03/08 10:59:54;;;;;;;14.03;9.80;;;9.50;99.90;11.90;95435.00;;;;5068484;28;20208;-66
2023/03/08 11:02:43;;;;;;;12.47;9.73;;;9.80;99.90;12.50;95424.00;;;;5055947;28;20216;-65
2023/03/08 11:05:31;;;;;;;16.67;10.63;;;10.10;99.90;13.00;95422.00;;;;5061987;28;20695;-66
2023/03/08 11:08:22;;;;;;;17.63;8.97;;;10.90;99.90;13.50;95422.00;;;;5064401;28;20238;-66
2023/03/08 11:11:14;;;;;;;16.23;9.70;;;10.90;99.90;13.60;95409.00;;;;5057611;28;20215;-67
2023/03/08 11:14:05;;;;;;;14.93;10.70;;;11.20;99.90;13.40;95395.00;;;;5060798;28;20199;-67
2023/03/08 11:17:12;;;;;;;15.17;9.97;;;11.40;99.20;12.40;95406.00;;;;5068464;28;20219;-69
2023/03/08 11:20:13;;;;;;;12.40;9.27;;;11.50;96.30;11.90;95404.00;;;;5059149;28;20216;-67
2023/03/08 11:23:16;;;;;;;14.63;10.17;;;11.20;94.70;12.00;95393.00;;;;5067491;28;20276;-72
2023/03/08 11:26:15;;;;;;;13.77;10.50;;;10.90;94.60;12.90;95374.00;;;;5064695;28;20596;-67
2023/03/08 11:29:18;;;;;;;16.57;10.53;;;11.20;95.00;14.10;95360.00;;;;5060436;28;20208;-68
2023/03/08 11:32:19;;;;;;;15.10;10.43;;;11.60;94.60;14.20;95374.00;;;;5063522;28;20222;-67
2023/03/08 11:35:19;;;;;;;14.07;10.33;;;12.00;94.30;14.30;95373.00;;;;5064226;28;20211;-68
2023/03/08 11:38:17;;;;;;;15.87;9.87;;;12.30;93.40;15.00;95355.00;;;;5064015;28;20217;-67
2023/03/08 11:41:19;;;;;;;13.43;9.43;;;12.60;92.90;14.90;95338.00;;;;5063512;28;20698;-68
2023/03/08 11:44:26;;;;;;;12.20;9.20;;;12.90;91.90;15.20;95326.00;;;;5063998;28;20200;-68
2023/03/08 11:47:52;;;;;;;13.73;9.17;;;13.10;90.40;14.50;95345.00;;;;5064700;28;20223;-72
2023/03/08 11:50:50;;;;;;;13.60;10.37;;;13.30;88.80;14.00;95321.00;;;;5058897;28;20285;-68
2023/03/08 11:53:54;;;;;;;13.77;9.93;;;13.30;87.50;15.00;95320.00;;;;5060670;28;20793;-67
2023/03/08 11:56:51;;;;;;;12.53;9.73;;;13.20;89.10;15.60;95318.00;;;;5064774;28;20199;-71
2023/03/08 11:59:46;;;;;;;11.43;8.47;;;13.70;89.30;13.20;95283.00;;;;5062081;28;20583;-69
2023/03/08 12:02:40;;;;;;;14.97;10.47;;;13.60;84.00;14.50;95292.00;;;;5061526;28;20235;-66
2023/03/08 12:05:32;;;;;;;14.27;10.27;;;13.30;85.40;15.40;95295.00;;;;5050562;28;20678;-66
2023/03/08 12:08:27;;;;;;;17.67;12.00;;;13.60;85.50;13.60;95277.00;;;;5061611;28;20200;-74
2023/03/08 12:11:23;;;;;;;12.73;9.93;;;13.50;83.80;15.90;95285.00;;;;5054390;28;20207;-67
2023/03/08 12:14:19;;;;;;;18.00;10.73;;;13.80;86.20;17.00;95286.00;;;;5060739;28;20211;-66
2023/03/08 12:17:15;;;;;;;13.20;9.70;;;14.30;85.00;18.00;95285.00;;;;5062571;28;20283;-65
2023/03/08 12:20:07;;;;;;;12.00;10.10;;;14.90;84.70;18.80;95282.00;;;;5065989;28;20200;-70
2023/03/08 12:23:02;;;;;;;12.17;10.17;;;15.50;83.20;19.40;95282.00;;;;5061537;28;20227;-70
2023/03/08 12:25:56;;;;;;;15.63;10.40;;;16.20;82.00;19.20;95263.00;;;;5064852;28;20346;-66
2023/03/08 12:28:52;;;;;;;14.60;9.27;;;16.70;77.60;19.90;95264.00;;;;5065281;28;20208;-67
2023/03/08 12:31:45;;;;;;;13.60;9.27;;;17.10;77.80;20.00;95258.00;;;;5063572;28;20241;-66
2023/03/08 12:34:39;;;;;;;14.10;9.63;;;17.50;75.00;19.60;95252.00;;;;5062832;28;20807;-67
2023/03/08 12:37:30;;;;;;;13.63;9.50;;;17.80;70.70;20.00;95235.00;;;;5061979;28;20220;-69